sensor_id;sensor_type;location;lat;lon;timestamp;P1;durP1;ratioP1;P2;durP2;ratioP2
81032;SDS011;70514;52.478;6.102;2023-06-22T00:02:25;4.82;;;2.55;;
81032;SDS011;70514;52.478;6.102;2023-06-22T00:04:52;4.68;;;3.33;;
81032;SDS011;70514;52.478;6.102;2023-06-22T00:07:19;8.77;;;5.38;;
81032;SDS011;70514;52.478;6.102;2023-06-22T00:09:45;10.00;;;5.15;;
81032;SDS011;70514;52.478;6.102;2023-06-22T00:12:12;7.40;;;3.90;;
81032;SDS011;70514;52.478;6.102;2023-06-22T00:14:38;6.70;;;3.83;;
81032;SDS011;70514;52.478;6.102;2023-06-22T00:17:05;4.15;;;2.75;;
81032;SDS011;70514;52.478;6.102;2023-06-22T00:19:31;8.50;;;4.45;;
81032;SDS011;70514;52.478;6.102;2023-06-22T00:21:59;7.47;;;4.95;;
81032;SDS011;70514;52.478;6.102;2023-06-22T00:24:26;6.63;;;4.80;;
81032;SDS011;70514;52.478;6.102;2023-06-22T00:26:53;6.22;;;4.78;;
81032;SDS011;70514;52.478;6.102;2023-06-22T00:29:19;5.13;;;3.63;;
81032;SDS011;70514;52.478;6.102;2023-06-22T00:31:48;6.40;;;3.65;;
81032;SDS011;70514;52.478;6.102;2023-06-22T00:34:14;3.83;;;3.03;;
81032;SDS011;70514;52.478;6.102;2023-06-22T00:36:42;6.95;;;3.45;;
81032;SDS011;70514;52.478;6.102;2023-06-22T00:39:08;5.82;;;3.60;;
81032;SDS011;70514;52.478;6.102;2023-06-22T00:41:35;5.18;;;3.30;;
81032;SDS011;70514;52.478;6.102;2023-06-22T00:44:02;6.63;;;4.40;;
81032;SDS011;70514;52.478;6.102;2023-06-22T00:46:29;7.35;;;5.82;;
81032;SDS011;70514;52.478;6.102;2023-06-22T00:48:55;6.78;;;4.95;;
81032;SDS011;70514;52.478;6.102;2023-06-22T00:51:23;7.95;;;4.90;;
81032;SDS011;70514;52.478;6.102;2023-06-22T00:53:50;9.00;;;5.53;;
81032;SDS011;70514;52.478;6.102;2023-06-22T00:56:19;8.00;;;4.88;;
81032;SDS011;70514;52.478;6.102;2023-06-22T00:58:51;7.95;;;5.03;;
81032;SDS011;70514;52.478;6.102;2023-06-22T01:01:19;8.25;;;4.32;;
81032;SDS011;70514;52.478;6.102;2023-06-22T01:03:50;8.98;;;4.93;;
81032;SDS011;70514;52.478;6.102;2023-06-22T01:06:20;10.85;;;5.82;;
81032;SDS011;70514;52.478;6.102;2023-06-22T01:09:00;11.85;;;6.28;;
81032;SDS011;70514;52.478;6.102;2023-06-22T01:11:36;10.00;;;6.07;;
81032;SDS011;70514;52.478;6.102;2023-06-22T01:14:26;9.90;;;5.80;;
81032;SDS011;70514;52.478;6.102;2023-06-22T01:16:58;10.23;;;6.75;;
81032;SDS011;70514;52.478;6.102;2023-06-22T01:19:46;8.45;;;5.85;;
81032;SDS011;70514;52.478;6.102;2023-06-22T01:22:18;13.38;;;7.03;;
81032;SDS011;70514;52.478;6.102;2023-06-22T01:30:33;15.13;;;6.70;;
81032;SDS011;70514;52.478;6.102;2023-06-22T01:33:05;19.20;;;8.20;;
81032;SDS011;70514;52.478;6.102;2023-06-22T01:35:33;12.52;;;7.13;;
81032;SDS011;70514;52.478;6.102;2023-06-22T01:38:00;14.55;;;7.80;;
81032;SDS011;70514;52.478;6.102;2023-06-22T01:42:54;12.25;;;7.05;;
81032;SDS011;70514;52.478;6.102;2023-06-22T01:45:21;15.98;;;7.68;;
81032;SDS011;70514;52.478;6.102;2023-06-22T01:47:48;12.73;;;7.57;;
81032;SDS011;70514;52.478;6.102;2023-06-22T01:50:15;13.23;;;7.05;;
81032;SDS011;70514;52.478;6.102;2023-06-22T01:52:42;18.10;;;7.90;;
81032;SDS011;70514;52.478;6.102;2023-06-22T01:55:09;14.75;;;7.50;;
81032;SDS011;70514;52.478;6.102;2023-06-22T01:57:36;16.92;;;7.78;;
81032;SDS011;70514;52.478;6.102;2023-06-22T02:00:04;19.27;;;7.55;;
81032;SDS011;70514;52.478;6.102;2023-06-22T02:02:37;13.38;;;8.00;;
81032;SDS011;70514;52.478;6.102;2023-06-22T02:05:07;17.17;;;8.80;;
81032;SDS011;70514;52.478;6.102;2023-06-22T02:07:44;13.77;;;7.63;;
81032;SDS011;70514;52.478;6.102;2023-06-22T02:10:15;13.25;;;8.45;;
81032;SDS011;70514;52.478;6.102;2023-06-22T02:12:46;14.85;;;8.65;;
81032;SDS011;70514;52.478;6.102;2023-06-22T02:15:14;13.45;;;8.27;;
81032;SDS011;70514;52.478;6.102;2023-06-22T02:17:41;15.25;;;8.52;;
81032;SDS011;70514;52.478;6.102;2023-06-22T02:20:12;14.43;;;7.82;;
81032;SDS011;70514;52.478;6.102;2023-06-22T02:22:41;13.88;;;8.13;;
81032;SDS011;70514;52.478;6.102;2023-06-22T02:25:08;13.50;;;8.50;;
81032;SDS011;70514;52.478;6.102;2023-06-22T02:27:35;13.45;;;8.43;;
81032;SDS011;70514;52.478;6.102;2023-06-22T02:30:01;15.20;;;8.35;;
81032;SDS011;70514;52.478;6.102;2023-06-22T02:32:28;19.00;;;9.40;;
81032;SDS011;70514;52.478;6.102;2023-06-22T02:34:55;19.17;;;8.60;;
81032;SDS011;70514;52.478;6.102;2023-06-22T02:37:21;16.25;;;9.15;;
81032;SDS011;70514;52.478;6.102;2023-06-22T02:39:51;15.95;;;9.32;;
81032;SDS011;70514;52.478;6.102;2023-06-22T02:42:17;17.52;;;9.10;;
81032;SDS011;70514;52.478;6.102;2023-06-22T02:44:47;17.77;;;8.43;;
81032;SDS011;70514;52.478;6.102;2023-06-22T02:47:13;15.73;;;9.93;;
81032;SDS011;70514;52.478;6.102;2023-06-22T02:49:40;16.25;;;9.05;;
81032;SDS011;70514;52.478;6.102;2023-06-22T02:52:08;15.77;;;7.93;;
81032;SDS011;70514;52.478;6.102;2023-06-22T02:54:34;17.88;;;8.77;;
81032;SDS011;70514;52.478;6.102;2023-06-22T02:57:01;17.65;;;9.68;;
81032;SDS011;70514;52.478;6.102;2023-06-22T02:59:30;16.33;;;9.38;;
81032;SDS011;70514;52.478;6.102;2023-06-22T03:01:59;17.23;;;9.68;;
81032;SDS011;70514;52.478;6.102;2023-06-22T03:04:26;18.38;;;9.80;;
81032;SDS011;70514;52.478;6.102;2023-06-22T03:06:53;16.23;;;9.05;;
81032;SDS011;70514;52.478;6.102;2023-06-22T03:09:20;15.65;;;9.38;;
81032;SDS011;70514;52.478;6.102;2023-06-22T03:11:46;13.80;;;8.65;;
81032;SDS011;70514;52.478;6.102;2023-06-22T03:14:13;19.13;;;11.07;;
81032;SDS011;70514;52.478;6.102;2023-06-22T03:16:39;18.33;;;10.15;;
81032;SDS011;70514;52.478;6.102;2023-06-22T03:19:07;20.27;;;10.82;;
81032;SDS011;70514;52.478;6.102;2023-06-22T03:21:34;18.63;;;9.38;;
81032;SDS011;70514;52.478;6.102;2023-06-22T03:24:00;19.90;;;11.32;;
81032;SDS011;70514;52.478;6.102;2023-06-22T03:26:27;18.45;;;9.68;;
81032;SDS011;70514;52.478;6.102;2023-06-22T03:28:54;19.75;;;10.00;;
81032;SDS011;70514;52.478;6.102;2023-06-22T03:31:21;18.10;;;8.60;;
81032;SDS011;70514;52.478;6.102;2023-06-22T03:36:17;19.00;;;9.55;;
81032;SDS011;70514;52.478;6.102;2023-06-22T03:38:47;19.38;;;9.75;;
81032;SDS011;70514;52.478;6.102;2023-06-22T03:41:15;23.20;;;10.73;;
81032;SDS011;70514;52.478;6.102;2023-06-22T03:43:42;22.10;;;11.68;;
81032;SDS011;70514;52.478;6.102;2023-06-22T03:46:09;25.70;;;12.20;;
81032;SDS011;70514;52.478;6.102;2023-06-22T03:48:35;15.98;;;8.38;;
81032;SDS011;70514;52.478;6.102;2023-06-22T03:51:02;22.90;;;11.82;;
81032;SDS011;70514;52.478;6.102;2023-06-22T03:53:32;19.63;;;10.98;;
81032;SDS011;70514;52.478;6.102;2023-06-22T03:55:58;21.10;;;11.45;;
81032;SDS011;70514;52.478;6.102;2023-06-22T03:58:25;19.02;;;10.10;;
81032;SDS011;70514;52.478;6.102;2023-06-22T04:00:52;16.25;;;7.65;;
81032;SDS011;70514;52.478;6.102;2023-06-22T04:03:19;17.15;;;9.80;;
81032;SDS011;70514;52.478;6.102;2023-06-22T04:05:46;13.98;;;8.70;;
81032;SDS011;70514;52.478;6.102;2023-06-22T04:08:14;19.48;;;10.00;;
81032;SDS011;70514;52.478;6.102;2023-06-22T04:10:41;18.25;;;8.70;;
81032;SDS011;70514;52.478;6.102;2023-06-22T04:13:07;25.92;;;11.35;;
81032;SDS011;70514;52.478;6.102;2023-06-22T04:15:34;18.42;;;9.38;;
81032;SDS011;70514;52.478;6.102;2023-06-22T04:18:01;20.65;;;10.30;;
81032;SDS011;70514;52.478;6.102;2023-06-22T04:20:27;19.17;;;9.95;;
81032;SDS011;70514;52.478;6.102;2023-06-22T04:22:55;20.02;;;8.75;;
81032;SDS011;70514;52.478;6.102;2023-06-22T04:25:23;18.17;;;9.50;;
81032;SDS011;70514;52.478;6.102;2023-06-22T04:27:50;20.05;;;9.93;;
81032;SDS011;70514;52.478;6.102;2023-06-22T04:30:17;20.65;;;9.85;;
81032;SDS011;70514;52.478;6.102;2023-06-22T04:32:44;17.80;;;9.70;;
81032;SDS011;70514;52.478;6.102;2023-06-22T04:35:11;21.90;;;10.38;;
81032;SDS011;70514;52.478;6.102;2023-06-22T04:37:38;14.70;;;8.07;;
81032;SDS011;70514;52.478;6.102;2023-06-22T04:40:05;15.30;;;7.68;;
81032;SDS011;70514;52.478;6.102;2023-06-22T04:42:33;18.73;;;9.40;;
81032;SDS011;70514;52.478;6.102;2023-06-22T04:45:01;15.13;;;7.95;;
81032;SDS011;70514;52.478;6.102;2023-06-22T04:47:28;14.13;;;7.43;;
81032;SDS011;70514;52.478;6.102;2023-06-22T04:49:54;16.30;;;9.50;;
81032;SDS011;70514;52.478;6.102;2023-06-22T04:52:21;17.40;;;9.57;;
81032;SDS011;70514;52.478;6.102;2023-06-22T04:54:48;12.32;;;6.88;;
81032;SDS011;70514;52.478;6.102;2023-06-22T04:57:17;13.45;;;7.80;;
81032;SDS011;70514;52.478;6.102;2023-06-22T04:59:43;15.40;;;9.05;;
81032;SDS011;70514;52.478;6.102;2023-06-22T05:02:10;9.60;;;5.85;;
81032;SDS011;70514;52.478;6.102;2023-06-22T05:04:37;18.75;;;9.75;;
81032;SDS011;70514;52.478;6.102;2023-06-22T05:07:05;15.73;;;8.50;;
81032;SDS011;70514;52.478;6.102;2023-06-22T05:09:32;15.90;;;8.57;;
81032;SDS011;70514;52.478;6.102;2023-06-22T05:12:02;13.00;;;6.82;;
81032;SDS011;70514;52.478;6.102;2023-06-22T05:14:32;16.98;;;8.30;;
81032;SDS011;70514;52.478;6.102;2023-06-22T05:16:59;17.48;;;9.50;;
81032;SDS011;70514;52.478;6.102;2023-06-22T05:19:30;15.13;;;7.95;;
81032;SDS011;70514;52.478;6.102;2023-06-22T05:22:00;15.15;;;8.68;;
81032;SDS011;70514;52.478;6.102;2023-06-22T05:24:27;13.82;;;8.32;;
81032;SDS011;70514;52.478;6.102;2023-06-22T05:26:53;15.55;;;8.55;;
81032;SDS011;70514;52.478;6.102;2023-06-22T05:29:20;17.80;;;9.60;;
81032;SDS011;70514;52.478;6.102;2023-06-22T05:31:48;14.48;;;7.18;;
81032;SDS011;70514;52.478;6.102;2023-06-22T05:36:42;15.57;;;7.93;;
81032;SDS011;70514;52.478;6.102;2023-06-22T05:39:10;13.65;;;7.68;;
81032;SDS011;70514;52.478;6.102;2023-06-22T05:41:41;18.25;;;10.38;;
81032;SDS011;70514;52.478;6.102;2023-06-22T05:44:09;17.92;;;9.77;;
81032;SDS011;70514;52.478;6.102;2023-06-22T05:46:36;23.35;;;11.52;;
81032;SDS011;70514;52.478;6.102;2023-06-22T05:49:03;12.65;;;6.82;;
81032;SDS011;70514;52.478;6.102;2023-06-22T05:51:30;13.55;;;7.03;;
81032;SDS011;70514;52.478;6.102;2023-06-22T05:53:56;13.43;;;6.10;;
81032;SDS011;70514;52.478;6.102;2023-06-22T05:56:23;17.30;;;10.05;;
81032;SDS011;70514;52.478;6.102;2023-06-22T05:58:50;17.75;;;7.95;;
81032;SDS011;70514;52.478;6.102;2023-06-22T06:01:16;12.98;;;7.68;;
81032;SDS011;70514;52.478;6.102;2023-06-22T06:03:43;19.55;;;10.85;;
81032;SDS011;70514;52.478;6.102;2023-06-22T06:08:39;12.48;;;6.97;;
81032;SDS011;70514;52.478;6.102;2023-06-22T06:11:07;16.73;;;7.22;;
81032;SDS011;70514;52.478;6.102;2023-06-22T06:13:34;10.57;;;5.55;;
81032;SDS011;70514;52.478;6.102;2023-06-22T06:16:00;14.27;;;8.40;;
81032;SDS011;70514;52.478;6.102;2023-06-22T06:18:27;8.90;;;4.88;;
81032;SDS011;70514;52.478;6.102;2023-06-22T06:20:54;11.05;;;6.93;;
81032;SDS011;70514;52.478;6.102;2023-06-22T06:23:20;13.38;;;7.30;;
81032;SDS011;70514;52.478;6.102;2023-06-22T06:25:47;12.52;;;6.38;;
81032;SDS011;70514;52.478;6.102;2023-06-22T06:28:13;11.93;;;6.85;;
81032;SDS011;70514;52.478;6.102;2023-06-22T06:30:40;9.20;;;4.05;;
81032;SDS011;70514;52.478;6.102;2023-06-22T06:33:07;7.80;;;4.85;;
81032;SDS011;70514;52.478;6.102;2023-06-22T06:35:35;12.80;;;7.55;;
81032;SDS011;70514;52.478;6.102;2023-06-22T06:38:02;6.97;;;4.55;;
81032;SDS011;70514;52.478;6.102;2023-06-22T06:40:28;11.68;;;7.07;;
81032;SDS011;70514;52.478;6.102;2023-06-22T06:42:56;12.15;;;6.65;;
81032;SDS011;70514;52.478;6.102;2023-06-22T06:45:23;8.52;;;5.88;;
81032;SDS011;70514;52.478;6.102;2023-06-22T06:47:52;12.73;;;7.30;;
81032;SDS011;70514;52.478;6.102;2023-06-22T06:50:19;13.38;;;5.78;;
81032;SDS011;70514;52.478;6.102;2023-06-22T06:52:46;11.23;;;6.88;;
81032;SDS011;70514;52.478;6.102;2023-06-22T06:55:12;11.43;;;6.70;;
81032;SDS011;70514;52.478;6.102;2023-06-22T06:57:40;9.43;;;5.88;;
81032;SDS011;70514;52.478;6.102;2023-06-22T07:00:08;12.00;;;5.80;;
81032;SDS011;70514;52.478;6.102;2023-06-22T07:02:38;10.55;;;6.30;;
81032;SDS011;70514;52.478;6.102;2023-06-22T07:05:07;12.60;;;6.50;;
81032;SDS011;70514;52.478;6.102;2023-06-22T07:10:04;5.82;;;3.42;;
81032;SDS011;70514;52.478;6.102;2023-06-22T07:12:32;6.63;;;4.40;;
81032;SDS011;70514;52.478;6.102;2023-06-22T07:15:06;7.85;;;4.72;;
81032;SDS011;70514;52.478;6.102;2023-06-22T07:17:35;7.82;;;5.05;;
81032;SDS011;70514;52.478;6.102;2023-06-22T07:20:02;7.90;;;4.63;;
81032;SDS011;70514;52.478;6.102;2023-06-22T07:22:34;8.48;;;4.82;;
81032;SDS011;70514;52.478;6.102;2023-06-22T07:25:01;9.50;;;4.97;;
81032;SDS011;70514;52.478;6.102;2023-06-22T07:27:30;8.73;;;4.60;;
81032;SDS011;70514;52.478;6.102;2023-06-22T07:30:02;7.72;;;4.05;;
81032;SDS011;70514;52.478;6.102;2023-06-22T07:32:29;8.98;;;5.30;;
81032;SDS011;70514;52.478;6.102;2023-06-22T07:34:55;8.38;;;5.35;;
81032;SDS011;70514;52.478;6.102;2023-06-22T07:37:22;5.55;;;2.70;;
81032;SDS011;70514;52.478;6.102;2023-06-22T07:39:48;9.48;;;4.82;;
81032;SDS011;70514;52.478;6.102;2023-06-22T07:42:19;6.75;;;3.80;;
81032;SDS011;70514;52.478;6.102;2023-06-22T07:44:46;6.68;;;4.00;;
81032;SDS011;70514;52.478;6.102;2023-06-22T07:47:13;7.68;;;4.82;;
81032;SDS011;70514;52.478;6.102;2023-06-22T07:49:39;12.00;;;4.93;;
81032;SDS011;70514;52.478;6.102;2023-06-22T07:52:06;8.07;;;4.43;;
81032;SDS011;70514;52.478;6.102;2023-06-22T07:54:33;9.38;;;4.38;;
81032;SDS011;70514;52.478;6.102;2023-06-22T07:57:00;6.63;;;2.95;;
81032;SDS011;70514;52.478;6.102;2023-06-22T07:59:27;8.82;;;4.63;;
81032;SDS011;70514;52.478;6.102;2023-06-22T08:01:54;10.07;;;5.82;;
81032;SDS011;70514;52.478;6.102;2023-06-22T08:04:21;15.32;;;5.72;;
81032;SDS011;70514;52.478;6.102;2023-06-22T08:06:48;6.35;;;4.15;;
81032;SDS011;70514;52.478;6.102;2023-06-22T08:09:15;8.82;;;5.40;;
81032;SDS011;70514;52.478;6.102;2023-06-22T08:11:41;10.10;;;5.28;;
81032;SDS011;70514;52.478;6.102;2023-06-22T08:14:08;10.68;;;5.35;;
81032;SDS011;70514;52.478;6.102;2023-06-22T08:16:35;10.80;;;5.28;;
81032;SDS011;70514;52.478;6.102;2023-06-22T08:19:01;7.00;;;3.90;;
81032;SDS011;70514;52.478;6.102;2023-06-22T08:21:28;10.55;;;4.95;;
81032;SDS011;70514;52.478;6.102;2023-06-22T08:23:55;8.00;;;4.35;;
81032;SDS011;70514;52.478;6.102;2023-06-22T08:26:21;8.30;;;4.75;;
81032;SDS011;70514;52.478;6.102;2023-06-22T08:28:49;11.82;;;5.30;;
81032;SDS011;70514;52.478;6.102;2023-06-22T08:31:16;11.88;;;5.70;;
81032;SDS011;70514;52.478;6.102;2023-06-22T08:33:43;7.38;;;4.30;;
81032;SDS011;70514;52.478;6.102;2023-06-22T08:36:15;10.27;;;5.22;;
81032;SDS011;70514;52.478;6.102;2023-06-22T08:38:42;10.05;;;6.07;;
81032;SDS011;70514;52.478;6.102;2023-06-22T08:41:09;7.22;;;3.92;;
81032;SDS011;70514;52.478;6.102;2023-06-22T08:43:35;9.25;;;5.50;;
81032;SDS011;70514;52.478;6.102;2023-06-22T08:46:02;7.93;;;4.63;;
81032;SDS011;70514;52.478;6.102;2023-06-22T08:48:29;8.20;;;4.53;;
81032;SDS011;70514;52.478;6.102;2023-06-22T08:50:55;10.88;;;6.07;;
81032;SDS011;70514;52.478;6.102;2023-06-22T08:53:22;7.22;;;4.22;;
81032;SDS011;70514;52.478;6.102;2023-06-22T08:55:49;8.75;;;5.45;;
81032;SDS011;70514;52.478;6.102;2023-06-22T08:58:17;9.88;;;6.38;;
81032;SDS011;70514;52.478;6.102;2023-06-22T09:00:44;6.22;;;4.25;;
81032;SDS011;70514;52.478;6.102;2023-06-22T09:03:11;6.25;;;3.65;;
81032;SDS011;70514;52.478;6.102;2023-06-22T09:08:05;8.70;;;5.18;;
81032;SDS011;70514;52.478;6.102;2023-06-22T09:10:31;8.23;;;4.80;;
81032;SDS011;70514;52.478;6.102;2023-06-22T09:15:25;8.43;;;4.82;;
81032;SDS011;70514;52.478;6.102;2023-06-22T09:17:51;10.45;;;6.38;;
81032;SDS011;70514;52.478;6.102;2023-06-22T09:20:20;8.13;;;5.00;;
81032;SDS011;70514;52.478;6.102;2023-06-22T09:22:47;9.80;;;6.35;;
81032;SDS011;70514;52.478;6.102;2023-06-22T09:25:13;8.27;;;4.90;;
81032;SDS011;70514;52.478;6.102;2023-06-22T09:27:40;6.72;;;3.35;;
81032;SDS011;70514;52.478;6.102;2023-06-22T09:30:07;5.93;;;3.83;;
81032;SDS011;70514;52.478;6.102;2023-06-22T09:35:03;7.28;;;3.50;;
81032;SDS011;70514;52.478;6.102;2023-06-22T09:37:32;8.23;;;4.47;;
81032;SDS011;70514;52.478;6.102;2023-06-22T09:39:58;10.23;;;5.32;;
81032;SDS011;70514;52.478;6.102;2023-06-22T09:42:25;9.80;;;5.10;;
81032;SDS011;70514;52.478;6.102;2023-06-22T09:44:51;9.55;;;4.63;;
81032;SDS011;70514;52.478;6.102;2023-06-22T09:47:18;6.20;;;3.70;;
81032;SDS011;70514;52.478;6.102;2023-06-22T09:49:45;7.00;;;4.55;;
81032;SDS011;70514;52.478;6.102;2023-06-22T09:52:14;7.68;;;4.72;;
81032;SDS011;70514;52.478;6.102;2023-06-22T09:54:40;7.38;;;4.63;;
81032;SDS011;70514;52.478;6.102;2023-06-22T09:57:07;10.15;;;5.50;;
81032;SDS011;70514;52.478;6.102;2023-06-22T09:59:34;4.53;;;3.20;;
81032;SDS011;70514;52.478;6.102;2023-06-22T10:02:00;8.68;;;4.78;;
81032;SDS011;70514;52.478;6.102;2023-06-22T10:04:27;6.63;;;3.90;;
81032;SDS011;70514;52.478;6.102;2023-06-22T10:09:20;6.57;;;3.67;;
81032;SDS011;70514;52.478;6.102;2023-06-22T10:11:47;7.32;;;4.00;;
81032;SDS011;70514;52.478;6.102;2023-06-22T10:14:14;11.25;;;5.53;;
81032;SDS011;70514;52.478;6.102;2023-06-22T10:16:41;8.77;;;4.88;;
81032;SDS011;70514;52.478;6.102;2023-06-22T10:19:09;5.65;;;3.03;;
81032;SDS011;70514;52.478;6.102;2023-06-22T10:21:36;13.02;;;6.30;;
81032;SDS011;70514;52.478;6.102;2023-06-22T10:24:03;5.22;;;3.30;;
81032;SDS011;70514;52.478;6.102;2023-06-22T10:26:33;8.70;;;3.42;;
81032;SDS011;70514;52.478;6.102;2023-06-22T10:29:01;7.75;;;4.57;;
81032;SDS011;70514;52.478;6.102;2023-06-22T10:31:42;7.25;;;3.78;;
81032;SDS011;70514;52.478;6.102;2023-06-22T10:34:09;10.82;;;4.43;;
81032;SDS011;70514;52.478;6.102;2023-06-22T10:36:36;4.72;;;2.95;;
81032;SDS011;70514;52.478;6.102;2023-06-22T10:39:03;7.40;;;4.10;;
81032;SDS011;70514;52.478;6.102;2023-06-22T10:41:30;6.68;;;4.15;;
81032;SDS011;70514;52.478;6.102;2023-06-22T10:43:57;8.43;;;3.33;;
81032;SDS011;70514;52.478;6.102;2023-06-22T10:48:54;4.60;;;2.08;;
81032;SDS011;70514;52.478;6.102;2023-06-22T10:51:23;7.20;;;4.18;;
81032;SDS011;70514;52.478;6.102;2023-06-22T10:53:52;6.43;;;4.53;;
81032;SDS011;70514;52.478;6.102;2023-06-22T10:58:46;5.38;;;3.67;;
81032;SDS011;70514;52.478;6.102;2023-06-22T11:01:13;9.27;;;4.85;;
81032;SDS011;70514;52.478;6.102;2023-06-22T11:03:59;7.78;;;3.88;;
81032;SDS011;70514;52.478;6.102;2023-06-22T11:06:26;8.20;;;4.18;;
81032;SDS011;70514;52.478;6.102;2023-06-22T11:08:53;8.63;;;4.88;;
81032;SDS011;70514;52.478;6.102;2023-06-22T11:11:38;7.22;;;4.32;;
81032;SDS011;70514;52.478;6.102;2023-06-22T11:14:05;5.38;;;4.00;;
81032;SDS011;70514;52.478;6.102;2023-06-22T11:16:32;7.05;;;4.65;;
81032;SDS011;70514;52.478;6.102;2023-06-22T11:18:59;8.48;;;4.43;;
81032;SDS011;70514;52.478;6.102;2023-06-22T11:21:27;7.38;;;3.53;;
81032;SDS011;70514;52.478;6.102;2023-06-22T11:23:55;5.32;;;3.35;;
81032;SDS011;70514;52.478;6.102;2023-06-22T11:26:22;4.93;;;2.88;;
81032;SDS011;70514;52.478;6.102;2023-06-22T11:28:49;4.60;;;3.05;;
81032;SDS011;70514;52.478;6.102;2023-06-22T11:31:15;5.80;;;3.78;;
81032;SDS011;70514;52.478;6.102;2023-06-22T11:33:52;6.93;;;3.85;;
81032;SDS011;70514;52.478;6.102;2023-06-22T11:36:20;4.53;;;3.20;;
81032;SDS011;70514;52.478;6.102;2023-06-22T11:38:47;7.47;;;3.95;;
81032;SDS011;70514;52.478;6.102;2023-06-22T11:41:14;8.80;;;3.88;;
81032;SDS011;70514;52.478;6.102;2023-06-22T11:43:41;5.15;;;3.35;;
81032;SDS011;70514;52.478;6.102;2023-06-22T11:46:08;5.38;;;3.28;;
81032;SDS011;70514;52.478;6.102;2023-06-22T11:51:03;4.97;;;2.63;;
81032;SDS011;70514;52.478;6.102;2023-06-22T11:55:57;5.75;;;3.42;;
81032;SDS011;70514;52.478;6.102;2023-06-22T11:58:24;5.57;;;3.50;;
81032;SDS011;70514;52.478;6.102;2023-06-22T12:00:51;7.00;;;3.28;;
81032;SDS011;70514;52.478;6.102;2023-06-22T12:03:19;4.68;;;2.90;;
81032;SDS011;70514;52.478;6.102;2023-06-22T12:05:49;5.35;;;3.20;;
81032;SDS011;70514;52.478;6.102;2023-06-22T12:08:18;7.82;;;3.72;;
81032;SDS011;70514;52.478;6.102;2023-06-22T12:10:46;5.18;;;2.85;;
81032;SDS011;70514;52.478;6.102;2023-06-22T12:13:13;6.60;;;3.22;;
81032;SDS011;70514;52.478;6.102;2023-06-22T12:15:41;5.70;;;2.47;;
81032;SDS011;70514;52.478;6.102;2023-06-22T12:18:09;6.38;;;2.65;;
81032;SDS011;70514;52.478;6.102;2023-06-22T12:23:05;8.50;;;2.78;;
81032;SDS011;70514;52.478;6.102;2023-06-22T12:25:50;4.25;;;2.95;;
81032;SDS011;70514;52.478;6.102;2023-06-22T12:28:17;4.13;;;3.05;;
81032;SDS011;70514;52.478;6.102;2023-06-22T12:30:44;5.85;;;3.15;;
81032;SDS011;70514;52.478;6.102;2023-06-22T12:33:12;3.70;;;2.88;;
81032;SDS011;70514;52.478;6.102;2023-06-22T12:35:39;3.22;;;2.25;;
81032;SDS011;70514;52.478;6.102;2023-06-22T12:38:07;3.78;;;2.30;;
81032;SDS011;70514;52.478;6.102;2023-06-22T12:40:34;4.13;;;2.35;;
81032;SDS011;70514;52.478;6.102;2023-06-22T12:43:01;4.57;;;2.50;;
81032;SDS011;70514;52.478;6.102;2023-06-22T12:47:58;3.95;;;2.67;;
81032;SDS011;70514;52.478;6.102;2023-06-22T12:50:26;3.13;;;2.30;;
81032;SDS011;70514;52.478;6.102;2023-06-22T12:52:54;6.13;;;3.53;;
81032;SDS011;70514;52.478;6.102;2023-06-22T12:55:26;4.72;;;2.47;;
81032;SDS011;70514;52.478;6.102;2023-06-22T12:57:53;3.00;;;2.13;;
81032;SDS011;70514;52.478;6.102;2023-06-22T13:00:20;5.68;;;2.55;;
81032;SDS011;70514;52.478;6.102;2023-06-22T13:02:47;4.20;;;3.00;;
81032;SDS011;70514;52.478;6.102;2023-06-22T13:07:41;4.15;;;2.40;;
81032;SDS011;70514;52.478;6.102;2023-06-22T13:10:09;3.83;;;2.78;;
81032;SDS011;70514;52.478;6.102;2023-06-22T13:15:03;3.13;;;2.30;;
81032;SDS011;70514;52.478;6.102;2023-06-22T13:17:31;3.90;;;2.10;;
81032;SDS011;70514;52.478;6.102;2023-06-22T13:19:58;4.57;;;2.97;;
81032;SDS011;70514;52.478;6.102;2023-06-22T13:22:31;4.78;;;2.30;;
81032;SDS011;70514;52.478;6.102;2023-06-22T13:25:00;4.40;;;2.22;;
81032;SDS011;70514;52.478;6.102;2023-06-22T13:27:27;4.47;;;2.22;;
81032;SDS011;70514;52.478;6.102;2023-06-22T13:29:54;2.17;;;1.65;;
81032;SDS011;70514;52.478;6.102;2023-06-22T13:32:20;3.25;;;1.60;;
81032;SDS011;70514;52.478;6.102;2023-06-22T13:34:47;2.88;;;1.83;;
81032;SDS011;70514;52.478;6.102;2023-06-22T13:37:14;2.83;;;1.90;;
81032;SDS011;70514;52.478;6.102;2023-06-22T13:39:41;3.45;;;2.35;;
81032;SDS011;70514;52.478;6.102;2023-06-22T13:42:07;5.63;;;2.10;;
81032;SDS011;70514;52.478;6.102;2023-06-22T13:44:34;4.13;;;2.53;;
81032;SDS011;70514;52.478;6.102;2023-06-22T13:47:01;2.78;;;2.35;;
81032;SDS011;70514;52.478;6.102;2023-06-22T13:49:27;4.10;;;2.67;;
81032;SDS011;70514;52.478;6.102;2023-06-22T13:51:56;3.33;;;2.40;;
81032;SDS011;70514;52.478;6.102;2023-06-22T13:54:23;5.03;;;3.10;;
81032;SDS011;70514;52.478;6.102;2023-06-22T13:56:56;6.30;;;3.17;;
81032;SDS011;70514;52.478;6.102;2023-06-22T13:59:23;4.88;;;3.20;;
81032;SDS011;70514;52.478;6.102;2023-06-22T14:01:51;4.00;;;2.85;;
81032;SDS011;70514;52.478;6.102;2023-06-22T14:04:17;3.30;;;2.40;;
81032;SDS011;70514;52.478;6.102;2023-06-22T14:06:44;5.47;;;2.75;;
81032;SDS011;70514;52.478;6.102;2023-06-22T14:09:10;3.72;;;2.60;;
81032;SDS011;70514;52.478;6.102;2023-06-22T14:11:37;4.18;;;2.95;;
81032;SDS011;70514;52.478;6.102;2023-06-22T14:14:04;6.18;;;3.95;;
81032;SDS011;70514;52.478;6.102;2023-06-22T14:16:30;6.50;;;3.72;;
81032;SDS011;70514;52.478;6.102;2023-06-22T14:18:57;7.70;;;4.05;;
81032;SDS011;70514;52.478;6.102;2023-06-22T14:21:24;6.68;;;3.35;;
81032;SDS011;70514;52.478;6.102;2023-06-22T14:23:51;5.18;;;3.13;;
81032;SDS011;70514;52.478;6.102;2023-06-22T14:26:18;11.18;;;4.20;;
81032;SDS011;70514;52.478;6.102;2023-06-22T14:28:45;4.60;;;3.03;;
81032;SDS011;70514;52.478;6.102;2023-06-22T14:31:17;8.73;;;3.90;;
81032;SDS011;70514;52.478;6.102;2023-06-22T14:33:48;8.00;;;4.22;;
81032;SDS011;70514;52.478;6.102;2023-06-22T14:36:15;7.88;;;4.47;;
81032;SDS011;70514;52.478;6.102;2023-06-22T14:38:44;6.95;;;4.18;;
81032;SDS011;70514;52.478;6.102;2023-06-22T14:41:12;7.68;;;4.15;;
81032;SDS011;70514;52.478;6.102;2023-06-22T14:43:47;10.15;;;5.28;;
81032;SDS011;70514;52.478;6.102;2023-06-22T14:46:14;8.75;;;4.90;;
81032;SDS011;70514;52.478;6.102;2023-06-22T14:48:42;8.82;;;4.03;;
81032;SDS011;70514;52.478;6.102;2023-06-22T14:51:09;5.07;;;4.07;;
81032;SDS011;70514;52.478;6.102;2023-06-22T14:53:39;5.38;;;3.80;;
81032;SDS011;70514;52.478;6.102;2023-06-22T14:56:06;6.38;;;4.38;;
81032;SDS011;70514;52.478;6.102;2023-06-22T14:58:33;6.18;;;4.10;;
81032;SDS011;70514;52.478;6.102;2023-06-22T15:01:02;5.20;;;3.85;;
81032;SDS011;70514;52.478;6.102;2023-06-22T15:03:30;12.23;;;4.05;;
81032;SDS011;70514;52.478;6.102;2023-06-22T15:05:58;5.40;;;3.20;;
81032;SDS011;70514;52.478;6.102;2023-06-22T15:08:26;6.93;;;4.55;;
81032;SDS011;70514;52.478;6.102;2023-06-22T15:10:53;6.03;;;3.35;;
81032;SDS011;70514;52.478;6.102;2023-06-22T15:13:20;6.63;;;3.20;;
81032;SDS011;70514;52.478;6.102;2023-06-22T15:15:48;4.85;;;3.38;;
81032;SDS011;70514;52.478;6.102;2023-06-22T15:18:15;6.88;;;3.65;;
81032;SDS011;70514;52.478;6.102;2023-06-22T15:20:43;4.55;;;3.22;;
81032;SDS011;70514;52.478;6.102;2023-06-22T15:23:14;7.75;;;3.55;;
81032;SDS011;70514;52.478;6.102;2023-06-22T15:25:40;5.50;;;3.50;;
81032;SDS011;70514;52.478;6.102;2023-06-22T15:28:08;6.75;;;4.22;;
81032;SDS011;70514;52.478;6.102;2023-06-22T15:30:35;6.95;;;3.30;;
81032;SDS011;70514;52.478;6.102;2023-06-22T15:33:02;3.83;;;3.38;;